Madrid, Alabama
Current Conditions -  °F | °C
As of 10:53 AM on Wednesday 22 Oct 2014 (Local Time) from KDHN Reporting Station
Clear Clear  
Wind Chill: 68°   Ceiling: Unl
Heat Index: 68°   Visibility: 10mi
Dew Point: 50°   Wind: 7mph
Humidity: 52%   Direction: 10°N
Pressure: 30.14"   Gusts: NA
Location:  31.0679°N, 85.3591°W
Report Text: KDHN 221553Z 01006KT 10SM CLR 20/10 A3014 RMK AO2 SLP201 T02000100
Loading
Personal Weather Stations






























Interactive Weather Map
Tropical Storm Tracking
New forecast layout! Learn more

10-Day Weather Forecast

Advertisements
Track Severe Weather on mobile